Time;durP1;ratioP1;P1;durP2;ratioP2;P2;SDS_P1;SDS_P2;PMS_P1;PMS_P2;Temp;Humidity;BMP_temperature;BMP_pressure;BME280_temperature;BME280_humidity;BME280_pressure;Samples;Min_cycle;Max_cycle;Signal;HPM_P1;HPM_P2
2022/06/16 00:02:19;;;;;;;3.65;3.35;;;;;;;;;;6277073;22;20187;-90
2022/06/16 00:04:53;;;;;;;4.00;3.60;;;;;;;;;;6276640;22;20175;-90
2022/06/16 00:07:20;;;;;;;3.25;2.97;;;;;;;;;;6276479;22;20160;-90
2022/06/16 00:09:48;;;;;;;3.13;2.92;;;;;;;;;;6276156;22;20198;-90
2022/06/16 00:12:20;;;;;;;3.33;3.03;;;;;;;;;;6276689;22;20172;-90
2022/06/16 00:14:53;;;;;;;3.33;3.03;;;;;;;;;;6276597;22;20202;-91
2022/06/16 00:17:22;;;;;;;3.20;2.92;;;;;;;;;;6276355;22;20178;-91
2022/06/16 00:19:50;;;;;;;3.45;3.15;;;;;;;;;;6275970;22;20196;-92
2022/06/16 00:22:20;;;;;;;3.35;2.88;;;;;;;;;;6276664;22;20179;-91
2022/06/16 00:24:50;;;;;;;3.50;2.95;;;;;;;;;;6276582;22;20247;-91
2022/06/16 00:27:17;;;;;;;3.63;3.33;;;;;;;;;;6276537;22;20179;-91
2022/06/16 00:29:45;;;;;;;3.47;3.13;;;;;;;;;;6276423;22;20196;-91
2022/06/16 00:32:24;;;;;;;3.25;3.03;;;;;;;;;;6276278;22;20172;-91
2022/06/16 00:34:59;;;;;;;3.28;3.08;;;;;;;;;;6276174;22;20172;-91
2022/06/16 00:37:28;;;;;;;3.47;3.15;;;;;;;;;;6276319;22;20174;-91
2022/06/16 00:39:55;;;;;;;3.20;2.90;;;;;;;;;;6276536;22;20199;-90
2022/06/16 00:42:26;;;;;;;3.17;2.97;;;;;;;;;;6276008;22;20172;-88
2022/06/16 00:44:57;;;;;;;3.40;3.10;;;;;;;;;;6276621;22;20544;-88
2022/06/16 00:47:27;;;;;;;3.20;2.90;;;;;;;;;;6276436;22;20172;-87
2022/06/16 00:49:58;;;;;;;3.47;3.17;;;;;;;;;;6277119;22;20192;-88
2022/06/16 00:52:29;;;;;;;3.47;3.17;;;;;;;;;;6276872;22;20195;-88
2022/06/16 00:57:50;;;;;;;3.53;3.22;;;;;;;;;;6274980;22;20202;-87
2022/06/16 01:00:29;;;;;;;3.42;3.13;;;;;;;;;;6277112;22;20272;-87
2022/06/16 01:02:57;;;;;;;4.22;2.92;;;;;;;;;;6276949;22;20164;-88
2022/06/16 01:05:27;;;;;;;3.15;2.85;;;;;;;;;;6276625;22;20176;-88
2022/06/16 01:08:07;;;;;;;;;;;;;;;;;;;;;
2022/06/16 01:10:50;;;;;;;3.55;3.15;;;;;;;;;;6276583;22;20651;-86
2022/06/16 01:16:15;;;;;;;3.80;3.05;;;;;;;;;;6276697;22;20202;-86
2022/06/16 01:18:47;;;;;;;3.50;3.05;;;;;;;;;;6276807;22;20156;-87
2022/06/16 01:21:20;;;;;;;3.35;3.15;;;;;;;;;;6276383;22;20175;-87
2022/06/16 01:24:01;;;;;;;3.33;2.97;;;;;;;;;;6277333;22;20191;-87
2022/06/16 01:26:46;;;;;;;3.05;2.85;;;;;;;;;;6276358;22;20194;-87
2022/06/16 01:29:22;;;;;;;3.65;2.92;;;;;;;;;;6269877;22;20192;-88
2022/06/16 01:34:28;;;;;;;5.25;3.22;;;;;;;;;;6369009;22;20181;-87
2022/06/16 01:36:59;;;;;;;3.08;2.80;;;;;;;;;;6372620;22;20162;-88
2022/06/16 01:39:28;;;;;;;3.15;2.85;;;;;;;;;;6373662;22;20222;-87
2022/06/16 01:41:59;;;;;;;3.40;3.05;;;;;;;;;;6373926;22;20194;-88
2022/06/16 01:44:31;;;;;;;3.20;2.97;;;;;;;;;;6343101;22;20159;-88
2022/06/16 01:47:01;;;;;;;3.85;3.03;;;;;;;;;;6342474;22;20188;-89
2022/06/16 01:49:33;;;;;;;3.22;2.92;;;;;;;;;;6342467;22;20190;-88
2022/06/16 01:52:03;;;;;;;3.47;3.17;;;;;;;;;;6342530;22;20173;-88
2022/06/16 01:54:33;;;;;;;3.20;2.95;;;;;;;;;;6342349;22;20209;-87
2022/06/16 01:57:02;;;;;;;3.10;2.80;;;;;;;;;;6341491;22;20166;-88
2022/06/16 01:59:34;;;;;;;3.42;3.15;;;;;;;;;;6341659;22;20182;-88
2022/06/16 02:02:04;;;;;;;3.58;3.15;;;;;;;;;;6342271;22;20167;-88
2022/06/16 02:04:36;;;;;;;3.00;2.80;;;;;;;;;;6342211;22;20166;-89
2022/06/16 02:07:06;;;;;;;3.40;2.97;;;;;;;;;;6342319;22;20174;-88
2022/06/16 02:09:36;;;;;;;3.25;2.95;;;;;;;;;;6341298;22;20197;-87
2022/06/16 02:12:05;;;;;;;2.97;2.78;;;;;;;;;;6341998;22;20170;-88
2022/06/16 02:14:38;;;;;;;3.20;3.00;;;;;;;;;;6341368;22;20167;-87
2022/06/16 02:17:06;;;;;;;3.35;2.95;;;;;;;;;;6341662;22;20170;-88
2022/06/16 02:19:33;;;;;;;3.35;3.05;;;;;;;;;;6342123;22;20223;-88
2022/06/16 02:22:03;;;;;;;3.40;3.10;;;;;;;;;;6341309;22;20167;-88
2022/06/16 02:24:31;;;;;;;3.53;3.22;;;;;;;;;;6340788;22;20171;-88
2022/06/16 02:27:00;;;;;;;2.92;2.72;;;;;;;;;;6339940;22;20175;-88
2022/06/16 02:29:29;;;;;;;3.10;2.90;;;;;;;;;;6340257;22;20186;-87
2022/06/16 02:32:08;;;;;;;2.88;2.67;;;;;;;;;;6339673;22;20166;-87
2022/06/16 02:34:42;;;;;;;4.15;2.78;;;;;;;;;;6340162;22;20162;-88
2022/06/16 02:37:19;;;;;;;2.88;2.67;;;;;;;;;;6340049;22;20163;-88
2022/06/16 02:40:01;;;;;;;3.50;3.20;;;;;;;;;;6340255;22;20170;-88
2022/06/16 02:42:32;;;;;;;3.40;3.10;;;;;;;;;;6340945;22;20206;-87
2022/06/16 02:45:01;;;;;;;3.30;3.10;;;;;;;;;;6340254;22;20167;-88
2022/06/16 02:47:47;;;;;;;3.00;2.80;;;;;;;;;;6339936;22;20223;-88
2022/06/16 02:50:21;;;;;;;3.17;2.88;;;;;;;;;;6341023;22;20206;-87
2022/06/16 02:52:50;;;;;;;3.63;2.80;;;;;;;;;;6341492;22;20210;-87
2022/06/16 02:55:21;;;;;;;3.25;3.05;;;;;;;;;;6339813;22;20171;-88
2022/06/16 02:57:50;;;;;;;3.78;3.08;;;;;;;;;;6339906;22;20201;-87
2022/06/16 03:00:18;;;;;;;3.97;3.20;;;;;;;;;;6340629;22;20177;-86
2022/06/16 03:02:47;;;;;;;3.28;3.00;;;;;;;;;;6339629;22;20265;-87
2022/06/16 03:05:16;;;;;;;3.03;2.72;;;;;;;;;;6339197;22;20190;-88
2022/06/16 03:07:44;;;;;;;3.15;2.85;;;;;;;;;;6339123;22;20171;-87
2022/06/16 03:10:13;;;;;;;3.25;3.05;;;;;;;;;;6339648;22;20231;-87
2022/06/16 03:12:40;;;;;;;3.17;2.97;;;;;;;;;;6339992;22;20190;-89
2022/06/16 03:15:08;;;;;;;2.90;2.70;;;;;;;;;;6341237;22;20178;-87
2022/06/16 03:17:35;;;;;;;3.00;2.80;;;;;;;;;;6340868;22;20197;-88
2022/06/16 03:20:05;;;;;;;2.97;2.78;;;;;;;;;;6339863;22;20167;-88
2022/06/16 03:22:32;;;;;;;4.47;3.22;;;;;;;;;;6340364;22;20201;-89
2022/06/16 03:25:00;;;;;;;3.10;2.80;;;;;;;;;;6341847;22;20239;-86
2022/06/16 03:27:27;;;;;;;3.20;2.83;;;;;;;;;;6341262;22;20170;-88
2022/06/16 03:29:54;;;;;;;4.35;3.00;;;;;;;;;;6341455;22;20182;-87
2022/06/16 03:32:22;;;;;;;3.50;3.25;;;;;;;;;;6341255;22;20202;-87
2022/06/16 03:34:49;;;;;;;3.13;2.90;;;;;;;;;;6342279;22;20169;-87
2022/06/16 03:37:17;;;;;;;3.08;2.88;;;;;;;;;;6342312;22;20195;-87
2022/06/16 03:39:45;;;;;;;2.85;2.65;;;;;;;;;;6341781;22;20181;-88
2022/06/16 03:42:12;;;;;;;3.20;2.90;;;;;;;;;;6342472;22;20561;-87
2022/06/16 03:44:39;;;;;;;3.25;2.95;;;;;;;;;;6342263;22;20269;-87
2022/06/16 03:47:06;;;;;;;3.15;2.88;;;;;;;;;;6341341;22;20171;-87
2022/06/16 03:49:34;;;;;;;3.03;2.83;;;;;;;;;;6340936;22;20214;-88
2022/06/16 03:52:01;;;;;;;3.38;3.10;;;;;;;;;;6341347;22;20494;-87
2022/06/16 03:54:30;;;;;;;3.20;2.90;;;;;;;;;;6341238;22;20170;-88
2022/06/16 03:56:57;;;;;;;3.25;3.00;;;;;;;;;;6340714;22;20171;-88
2022/06/16 03:59:24;;;;;;;3.10;2.80;;;;;;;;;;6340689;22;20171;-87
2022/06/16 04:01:51;;;;;;;3.67;3.38;;;;;;;;;;6340810;22;20186;-88
2022/06/16 04:04:19;;;;;;;3.13;2.80;;;;;;;;;;6340560;22;20381;-87
2022/06/16 04:06:46;;;;;;;3.20;3.00;;;;;;;;;;6340751;22;20178;-88
2022/06/16 04:09:13;;;;;;;3.60;3.30;;;;;;;;;;6341102;22;20186;-88
2022/06/16 04:11:42;;;;;;;3.65;3.35;;;;;;;;;;6340258;22;20170;-86
2022/06/16 04:14:11;;;;;;;3.58;3.28;;;;;;;;;;6339156;22;20222;-87
2022/06/16 04:16:42;;;;;;;3.08;2.80;;;;;;;;;;6340317;22;20213;-89
2022/06/16 04:19:10;;;;;;;3.13;2.92;;;;;;;;;;6342090;22;20211;-86
2022/06/16 04:21:37;;;;;;;2.95;2.75;;;;;;;;;;6341082;22;20193;-87
2022/06/16 04:24:05;;;;;;;3.53;3.22;;;;;;;;;;6341386;22;20197;-88
2022/06/16 04:26:33;;;;;;;3.78;3.38;;;;;;;;;;6340503;22;20178;-88
2022/06/16 04:29:02;;;;;;;3.38;3.03;;;;;;;;;;6339350;22;20232;-88
2022/06/16 04:31:30;;;;;;;3.47;3.20;;;;;;;;;;6340907;22;20179;-88
2022/06/16 04:33:57;;;;;;;3.60;2.90;;;;;;;;;;6340300;22;20197;-88
2022/06/16 04:36:25;;;;;;;3.85;3.20;;;;;;;;;;6339836;22;20171;-87
2022/06/16 04:38:53;;;;;;;3.25;2.95;;;;;;;;;;6340552;22;20166;-88
2022/06/16 04:41:20;;;;;;;3.20;3.00;;;;;;;;;;6339551;22;20201;-87
2022/06/16 04:43:48;;;;;;;3.55;3.30;;;;;;;;;;6339896;22;20190;-87
2022/06/16 04:46:17;;;;;;;3.30;2.97;;;;;;;;;;6339516;22;20512;-87
2022/06/16 04:48:44;;;;;;;3.42;2.95;;;;;;;;;;6339102;22;20183;-87
2022/06/16 04:51:12;;;;;;;3.75;3.10;;;;;;;;;;6339660;22;20191;-88
2022/06/16 04:53:40;;;;;;;3.10;2.90;;;;;;;;;;6340006;22;20217;-86
2022/06/16 04:56:08;;;;;;;3.10;2.90;;;;;;;;;;6339464;22;20219;-87
2022/06/16 04:58:37;;;;;;;4.57;3.38;;;;;;;;;;6338821;22;20223;-87
2022/06/16 05:01:05;;;;;;;3.20;3.00;;;;;;;;;;6339067;22;20166;-85
2022/06/16 05:03:34;;;;;;;3.45;3.10;;;;;;;;;;6338688;22;20210;-87
2022/06/16 05:06:01;;;;;;;4.55;3.00;;;;;;;;;;6338343;22;20183;-86
2022/06/16 05:08:28;;;;;;;3.70;3.13;;;;;;;;;;6337997;22;20175;-88
2022/06/16 05:10:56;;;;;;;3.28;2.97;;;;;;;;;;6337988;22;20193;-87
2022/06/16 05:13:23;;;;;;;4.03;2.97;;;;;;;;;;6337907;22;20193;-87
2022/06/16 05:15:53;;;;;;;3.38;3.08;;;;;;;;;;6340582;22;20224;-86
2022/06/16 05:18:21;;;;;;;3.30;3.10;;;;;;;;;;6337909;22;20171;-87
2022/06/16 05:20:49;;;;;;;3.63;3.33;;;;;;;;;;6337734;22;20186;-88
2022/06/16 05:23:16;;;;;;;3.42;2.80;;;;;;;;;;6336695;22;20191;-86
2022/06/16 05:25:44;;;;;;;3.65;3.35;;;;;;;;;;6337562;22;20170;-87
2022/06/16 05:28:12;;;;;;;3.53;3.20;;;;;;;;;;6337437;22;20223;-87
2022/06/16 05:30:39;;;;;;;3.15;2.85;;;;;;;;;;6338695;22;20187;-85
2022/06/16 05:33:08;;;;;;;4.03;3.10;;;;;;;;;;6337840;22;20200;-86
2022/06/16 05:35:36;;;;;;;3.72;2.90;;;;;;;;;;6338655;22;20170;-86
2022/06/16 05:38:09;;;;;;;3.20;2.90;;;;;;;;;;6336387;22;20175;-87
2022/06/16 05:40:37;;;;;;;3.45;3.15;;;;;;;;;;6337296;22;20189;-87
2022/06/16 05:43:08;;;;;;;3.65;3.42;;;;;;;;;;6336961;22;20186;-87
2022/06/16 05:45:41;;;;;;;3.88;3.53;;;;;;;;;;6337168;22;20174;-87
2022/06/16 05:48:09;;;;;;;3.75;3.40;;;;;;;;;;6336836;22;20182;-87
2022/06/16 05:50:36;;;;;;;3.85;3.53;;;;;;;;;;6338175;22;20186;-87
2022/06/16 05:53:09;;;;;;;3.83;3.55;;;;;;;;;;6341040;22;20277;-87
2022/06/16 05:55:38;;;;;;;4.47;3.58;;;;;;;;;;6344579;22;20171;-88
2022/06/16 05:58:05;;;;;;;3.88;3.50;;;;;;;;;;6360899;22;20192;-89
2022/06/16 06:00:32;;;;;;;4.10;3.53;;;;;;;;;;6365370;22;20232;-89
2022/06/16 06:03:01;;;;;;;3.40;3.20;;;;;;;;;;6350841;22;20194;-88
2022/06/16 06:05:30;;;;;;;3.63;3.33;;;;;;;;;;6346710;22;20200;-88
2022/06/16 06:16:36;;;;;;;8.45;3.80;;;;;;;;;;6342797;22;20279;-88
2022/06/16 06:19:23;;;;;;;3.67;3.38;;;;;;;;;;6337148;22;20170;-88
2022/06/16 06:22:00;;;;;;;3.80;3.40;;;;;;;;;;6336972;22;20171;-88
2022/06/16 06:24:28;;;;;;;4.28;3.30;;;;;;;;;;6337663;22;20166;-90
2022/06/16 06:26:57;;;;;;;4.57;3.20;;;;;;;;;;6337503;22;20171;-89
2022/06/16 06:29:25;;;;;;;3.45;3.15;;;;;;;;;;6337600;22;20177;-88
2022/06/16 06:31:52;;;;;;;3.60;3.28;;;;;;;;;;6337144;22;20166;-87
2022/06/16 06:34:19;;;;;;;4.32;3.38;;;;;;;;;;6336999;22;20210;-88
2022/06/16 06:36:47;;;;;;;4.22;3.47;;;;;;;;;;6339560;22;20170;-88
2022/06/16 06:39:15;;;;;;;3.42;3.22;;;;;;;;;;6339100;22;20166;-88
2022/06/16 06:41:43;;;;;;;3.78;3.40;;;;;;;;;;6337653;22;20171;-88
2022/06/16 06:44:15;;;;;;;3.47;3.17;;;;;;;;;;6336988;22;20265;-87
2022/06/16 06:46:42;;;;;;;3.70;3.42;;;;;;;;;;6337585;22;20684;-85
2022/06/16 06:49:09;;;;;;;4.05;3.35;;;;;;;;;;6338015;22;20174;-87
2022/06/16 06:51:44;;;;;;;3.80;3.50;;;;;;;;;;6337165;22;20221;-88
2022/06/16 06:54:11;;;;;;;4.10;3.80;;;;;;;;;;6339840;22;20197;-86
2022/06/16 06:56:45;;;;;;;3.60;3.30;;;;;;;;;;6338006;22;20174;-88
2022/06/16 07:02:22;;;;;;;4.28;3.30;;;;;;;;;;6253523;22;20217;-88
2022/06/16 07:04:55;;;;;;;4.07;3.42;;;;;;;;;;6276533;22;20167;-87
2022/06/16 07:07:34;;;;;;;3.85;3.55;;;;;;;;;;6277207;22;20167;-88
2022/06/16 07:10:01;;;;;;;4.05;3.63;;;;;;;;;;6276142;22;20187;-88
2022/06/16 07:12:29;;;;;;;3.70;3.40;;;;;;;;;;6278522;22;20215;-88
2022/06/16 07:14:59;;;;;;;4.18;3.50;;;;;;;;;;6280286;22;20179;-88
2022/06/16 07:37:18;;;;;;;4.38;3.97;;;;;;;;;;6285488;22;20230;-87
2022/06/16 07:52:11;;;;;;;7.00;4.45;;;;;;;;;;6221854;23;20168;-87
2022/06/16 07:55:10;;;;;;;4.80;4.20;;;;;;;;;;6243960;23;20168;-88
2022/06/16 07:57:47;;;;;;;4.65;4.35;;;;;;;;;;6265031;22;20204;-88
2022/06/16 08:06:53;;;;;;;4.70;4.25;;;;;;;;;;6210394;23;20193;-89
2022/06/16 08:09:20;;;;;;;5.50;4.32;;;;;;;;;;6211254;23;20176;-87
2022/06/16 08:12:04;;;;;;;4.38;4.07;;;;;;;;;;6242826;22;20195;-89
2022/06/16 08:14:31;;;;;;;5.80;4.13;;;;;;;;;;6276018;22;20221;-90
2022/06/16 08:16:59;;;;;;;4.15;3.65;;;;;;;;;;6275843;22;20199;-90
2022/06/16 08:19:27;;;;;;;5.60;3.90;;;;;;;;;;6276496;22;20176;-90
2022/06/16 08:22:13;;;;;;;5.40;3.70;;;;;;;;;;6277305;22;20188;-92
2022/06/16 08:24:43;;;;;;;4.30;3.90;;;;;;;;;;6277239;22;20171;-88
2022/06/16 08:27:12;;;;;;;3.92;3.50;;;;;;;;;;6289638;22;20172;-89
2022/06/16 08:29:41;;;;;;;4.47;3.70;;;;;;;;;;6298345;22;20171;-90
2022/06/16 08:32:09;;;;;;;4.32;3.58;;;;;;;;;;6302688;22;20211;-91
2022/06/16 08:34:36;;;;;;;3.92;3.50;;;;;;;;;;6304964;22;20172;-91
2022/06/16 08:37:04;;;;;;;3.85;3.55;;;;;;;;;;6305012;22;20152;-91
2022/06/16 08:39:35;;;;;;;4.20;3.80;;;;;;;;;;6301164;22;20168;-91
2022/06/16 08:42:09;;;;;;;4.25;3.88;;;;;;;;;;6303989;22;20190;-92
2022/06/16 08:44:41;;;;;;;8.25;6.70;;;;;;;;;;6288491;22;20167;-89
2022/06/16 08:47:18;;;;;;;7.32;5.57;;;;;;;;;;6277488;22;20170;-89
2022/06/16 08:49:51;;;;;;;5.28;4.47;;;;;;;;;;6277590;22;20202;-90
2022/06/16 08:52:21;;;;;;;4.80;4.40;;;;;;;;;;6276329;22;20216;-90
2022/06/16 08:54:55;;;;;;;4.15;3.85;;;;;;;;;;6276672;22;20176;-89
2022/06/16 08:57:27;;;;;;;3.92;3.63;;;;;;;;;;6276852;22;20165;-88
2022/06/16 09:00:05;;;;;;;4.30;3.70;;;;;;;;;;6276005;22;20234;-91
2022/06/16 09:02:39;;;;;;;4.43;3.90;;;;;;;;;;6275749;22;20247;-89
2022/06/16 09:05:12;;;;;;;5.38;4.10;;;;;;;;;;6275484;22;20218;-91
2022/06/16 09:07:45;;;;;;;5.00;4.60;;;;;;;;;;6276015;22;20217;-91
2022/06/16 09:10:23;;;;;;;5.40;4.30;;;;;;;;;;6276036;22;20196;-89
2022/06/16 09:16:28;;;;;;;4.78;3.92;;;;;;;;;;6286850;22;20202;-91
2022/06/16 09:19:27;;;;;;;6.85;4.40;;;;;;;;;;6286748;22;20186;-92
2022/06/16 09:22:08;;;;;;;4.25;3.85;;;;;;;;;;6241643;23;20237;-92
2022/06/16 09:27:31;;;;;;;4.82;4.35;;;;;;;;;;6268539;22;20176;-95
2022/06/16 09:30:13;;;;;;;4.40;4.00;;;;;;;;;;6277797;22;20172;-94
2022/06/16 09:35:44;;;;;;;4.47;4.05;;;;;;;;;;6276120;22;20176;-92
2022/06/16 09:38:14;;;;;;;4.57;3.78;;;;;;;;;;6276980;22;20207;-92
2022/06/16 09:40:44;;;;;;;3.95;3.58;;;;;;;;;;6275735;22;20166;-90
2022/06/16 09:49:41;;;;;;;5.65;4.10;;;;;;;;;;6276587;22;20143;-90
2022/06/16 09:52:11;;;;;;;5.20;4.05;;;;;;;;;;6275445;22;20192;-89
2022/06/16 09:54:42;;;;;;;4.22;3.85;;;;;;;;;;6275767;22;20194;-90
2022/06/16 09:57:13;;;;;;;4.35;3.95;;;;;;;;;;6275298;22;20171;-90
2022/06/16 09:59:43;;;;;;;4.50;3.50;;;;;;;;;;6274760;22;20165;-89
2022/06/16 10:02:17;;;;;;;3.95;3.65;;;;;;;;;;6275189;22;20208;-89
2022/06/16 10:04:55;;;;;;;4.10;3.70;;;;;;;;;;6275907;22;20170;-89
2022/06/16 10:07:27;;;;;;;4.40;4.00;;;;;;;;;;6274994;22;20164;-89
2022/06/16 10:09:59;;;;;;;3.83;3.53;;;;;;;;;;6275114;22;20239;-90
2022/06/16 10:12:32;;;;;;;5.55;3.65;;;;;;;;;;6275134;22;20196;-88
2022/06/16 10:15:04;;;;;;;4.80;3.70;;;;;;;;;;6274846;22;20199;-89
2022/06/16 10:17:33;;;;;;;5.40;3.58;;;;;;;;;;6274977;22;20168;-90
2022/06/16 10:20:02;;;;;;;5.25;3.90;;;;;;;;;;6274896;22;20243;-89
2022/06/16 10:22:31;;;;;;;4.35;4.00;;;;;;;;;;6274864;22;20203;-91
2022/06/16 10:25:04;;;;;;;3.88;3.58;;;;;;;;;;6275123;22;20199;-91
2022/06/16 10:27:44;;;;;;;4.22;3.55;;;;;;;;;;6275046;22;20175;-92
2022/06/16 10:30:20;;;;;;;4.70;3.67;;;;;;;;;;6275691;22;20171;-92
2022/06/16 10:32:48;;;;;;;3.80;3.50;;;;;;;;;;6275262;22;20187;-91
2022/06/16 10:35:18;;;;;;;3.78;3.47;;;;;;;;;;6275297;22;20168;-91
2022/06/16 10:40:32;;;;;;;4.50;4.03;;;;;;;;;;6264090;22;20683;-91
2022/06/16 10:43:03;;;;;;;5.05;3.83;;;;;;;;;;6275515;22;20200;-90
2022/06/16 10:45:32;;;;;;;4.57;3.63;;;;;;;;;;6274890;22;20167;-90
2022/06/16 10:48:01;;;;;;;3.50;3.22;;;;;;;;;;6274460;22;20198;-90
2022/06/16 10:50:33;;;;;;;3.92;3.47;;;;;;;;;;6275049;22;20242;-91
2022/06/16 10:53:02;;;;;;;5.00;3.78;;;;;;;;;;6274767;22;20195;-92
2022/06/16 10:58:19;;;;;;;3.85;3.55;;;;;;;;;;6269731;22;20186;-90
2022/06/16 11:01:03;;;;;;;4.22;3.63;;;;;;;;;;6275933;22;20188;-91
2022/06/16 11:03:38;;;;;;;4.38;3.78;;;;;;;;;;6275349;22;20523;-91
2022/06/16 11:06:07;;;;;;;3.75;3.45;;;;;;;;;;6275831;22;20194;-89
2022/06/16 11:08:46;;;;;;;3.85;3.55;;;;;;;;;;6274900;22;20225;-91
2022/06/16 11:11:13;;;;;;;3.67;3.38;;;;;;;;;;6276113;22;20195;-90
2022/06/16 11:13:52;;;;;;;4.93;3.70;;;;;;;;;;6274852;22;20171;-91
2022/06/16 11:16:37;;;;;;;3.80;3.50;;;;;;;;;;6276465;22;20238;-92
2022/06/16 11:19:10;;;;;;;3.63;3.33;;;;;;;;;;6279102;22;20207;-92
2022/06/16 11:21:42;;;;;;;4.15;3.40;;;;;;;;;;6277037;22;20192;-93
2022/06/16 11:24:32;;;;;;;3.55;3.33;;;;;;;;;;6279770;22;20171;-91
2022/06/16 11:27:16;;;;;;;4.05;3.67;;;;;;;;;;6283388;22;20176;-91
2022/06/16 11:29:46;;;;;;;5.95;3.80;;;;;;;;;;6278751;22;20171;-91
2022/06/16 11:32:17;;;;;;;5.57;3.42;;;;;;;;;;6274569;22;20195;-90
2022/06/16 11:34:46;;;;;;;3.72;3.42;;;;;;;;;;6273928;22;20171;-91
2022/06/16 11:37:43;;;;;;;3.58;3.38;;;;;;;;;;6274151;22;20172;-89
2022/06/16 11:40:19;;;;;;;5.85;3.67;;;;;;;;;;6274222;22;20171;-87
2022/06/16 11:42:52;;;;;;;6.97;3.70;;;;;;;;;;6275019;22;20195;-86
2022/06/16 11:45:26;;;;;;;3.72;3.08;;;;;;;;;;6274389;22;20168;-89
2022/06/16 11:48:03;;;;;;;4.20;3.42;;;;;;;;;;6276615;22;20245;-90
2022/06/16 11:54:03;;;;;;;11.65;5.32;;;;;;;;;;6278060;22;20286;-93
2022/06/16 12:00:10;;;;;;;9.48;5.93;;;;;;;;;;6279444;22;20206;-90
2022/06/16 12:09:11;;;;;;;4.97;3.55;;;;;;;;;;6188299;23;20222;-85
2022/06/16 12:11:41;;;;;;;4.00;3.70;;;;;;;;;;6274491;22;20192;-84
2022/06/16 12:14:12;;;;;;;3.80;3.42;;;;;;;;;;6277358;22;20230;-85
2022/06/16 12:16:51;;;;;;;3.65;3.20;;;;;;;;;;6276499;22;20168;-86
2022/06/16 12:19:26;;;;;;;3.30;3.00;;;;;;;;;;6276051;22;20241;-85
2022/06/16 12:21:56;;;;;;;3.42;3.13;;;;;;;;;;6277404;22;20183;-86
2022/06/16 12:37:08;;;;;;;3.50;3.13;;;;;;;;;;5876721;24;20221;-83
2022/06/16 12:39:38;;;;;;;3.50;3.20;;;;;;;;;;5927647;24;20205;-83
2022/06/16 12:42:07;;;;;;;3.45;3.20;;;;;;;;;;5996337;23;20224;-84
2022/06/16 12:45:13;;;;;;;;;;;;;;;;;;;;;
2022/06/16 12:48:19;;;;;;;3.55;3.25;;;;;;;;;;6036498;23;20173;-86
2022/06/16 12:51:20;;;;;;;3.65;3.35;;;;;;;;;;5993913;23;20189;-87
2022/06/16 12:57:03;;;;;;;3.72;3.33;;;;;;;;;;5979556;24;20178;-84
2022/06/16 12:59:47;;;;;;;3.47;3.17;;;;;;;;;;5980024;24;20197;-92
2022/06/16 13:10:52;;;;;;;4.13;3.30;;;;;;;;;;6210473;22;20164;-86
2022/06/16 13:17:10;;;;;;;3.67;3.10;;;;;;;;;;6212194;23;20262;-86
2022/06/16 13:19:57;;;;;;;3.80;2.70;;;;;;;;;;6221841;22;20258;-87
2022/06/16 13:29:05;;;;;;;3.30;3.00;;;;;;;;;;6214422;22;20209;-86
2022/06/16 13:38:33;;;;;;;3.10;2.80;;;;;;;;;;6042238;23;20189;-91
2022/06/16 13:44:26;;;;;;;3.38;3.08;;;;;;;;;;6074547;23;20180;-87
2022/06/16 13:47:26;;;;;;;3.35;3.15;;;;;;;;;;6092056;23;20176;-88
2022/06/16 13:53:08;;;;;;;3.60;3.30;;;;;;;;;;5950782;24;20703;-87
2022/06/16 13:55:36;;;;;;;3.85;3.45;;;;;;;;;;6094221;23;20204;-87
2022/06/16 13:58:41;;;;;;;4.18;3.40;;;;;;;;;;6093706;23;20637;-86
2022/06/16 14:01:28;;;;;;;3.60;3.30;;;;;;;;;;6091784;23;20195;-86
2022/06/16 14:04:34;;;;;;;3.72;3.40;;;;;;;;;;6093248;23;20265;-86
2022/06/16 14:07:21;;;;;;;3.55;3.25;;;;;;;;;;6086044;23;20176;-87
2022/06/16 14:13:08;;;;;;;3.90;3.60;;;;;;;;;;6237852;22;20199;-87
2022/06/16 14:15:47;;;;;;;4.38;3.50;;;;;;;;;;6274466;22;20156;-88
2022/06/16 14:18:20;;;;;;;3.88;3.47;;;;;;;;;;6274604;22;20176;-87
2022/06/16 14:20:52;;;;;;;5.18;3.83;;;;;;;;;;6274680;22;20165;-88
2022/06/16 14:23:26;;;;;;;3.65;3.45;;;;;;;;;;6273551;22;20267;-88
2022/06/16 14:26:02;;;;;;;4.38;3.97;;;;;;;;;;6275468;22;20164;-88
2022/06/16 14:28:32;;;;;;;3.75;3.45;;;;;;;;;;6274792;22;20168;-87
2022/06/16 14:31:05;;;;;;;6.35;3.55;;;;;;;;;;6277664;22;20175;-87
2022/06/16 14:33:41;;;;;;;3.97;3.67;;;;;;;;;;6276153;22;20230;-87
2022/06/16 14:36:11;;;;;;;3.97;3.67;;;;;;;;;;6275820;22;20170;-88
2022/06/16 14:38:42;;;;;;;4.32;3.55;;;;;;;;;;6274943;22;20172;-88
2022/06/16 14:41:14;;;;;;;3.75;3.45;;;;;;;;;;6275340;22;20191;-88
2022/06/16 14:43:49;;;;;;;3.50;3.20;;;;;;;;;;6274063;22;20214;-88
2022/06/16 14:46:26;;;;;;;3.63;3.33;;;;;;;;;;6274163;22;20179;-87
2022/06/16 14:48:58;;;;;;;3.85;3.55;;;;;;;;;;6274330;22;20192;-88
2022/06/16 14:51:30;;;;;;;3.63;3.33;;;;;;;;;;6274026;22;20210;-87
2022/06/16 14:54:04;;;;;;;3.42;3.13;;;;;;;;;;6274937;22;20175;-88
2022/06/16 14:56:40;;;;;;;3.70;3.40;;;;;;;;;;6274908;22;20180;-86
2022/06/16 14:59:09;;;;;;;3.60;3.38;;;;;;;;;;6275780;22;20677;-87
2022/06/16 15:01:38;;;;;;;3.58;3.30;;;;;;;;;;6278000;22;20172;-86
2022/06/16 15:04:19;;;;;;;3.70;3.30;;;;;;;;;;6282290;22;20175;-86
2022/06/16 15:06:49;;;;;;;3.70;3.40;;;;;;;;;;6281069;22;20176;-87
2022/06/16 15:09:21;;;;;;;4.13;3.47;;;;;;;;;;6281438;22;20251;-88
2022/06/16 15:11:53;;;;;;;3.58;3.28;;;;;;;;;;6278807;22;20204;-90
2022/06/16 15:14:23;;;;;;;3.42;3.05;;;;;;;;;;6277659;22;20570;-86
2022/06/16 15:19:42;;;;;;;3.55;3.35;;;;;;;;;;6275621;22;20654;-87
2022/06/16 15:22:12;;;;;;;4.57;3.30;;;;;;;;;;6276722;22;20218;-87
2022/06/16 15:24:41;;;;;;;3.40;3.10;;;;;;;;;;6277124;22;20171;-87
2022/06/16 15:27:26;;;;;;;3.38;3.10;;;;;;;;;;6277078;22;20168;-87
2022/06/16 15:29:56;;;;;;;3.90;3.60;;;;;;;;;;6276708;22;20168;-87
2022/06/16 15:38:25;;;;;;;3.67;3.38;;;;;;;;;;6213045;23;20629;-87
2022/06/16 15:40:53;;;;;;;3.60;3.30;;;;;;;;;;6261741;22;20171;-87
2022/06/16 15:43:22;;;;;;;3.53;3.22;;;;;;;;;;6276699;22;20245;-87
2022/06/16 15:45:55;;;;;;;3.90;3.58;;;;;;;;;;6277489;22;20179;-86
2022/06/16 15:48:24;;;;;;;3.40;3.10;;;;;;;;;;6276585;22;20175;-86
2022/06/16 15:50:56;;;;;;;3.20;3.00;;;;;;;;;;6277562;22;20175;-87
2022/06/16 15:53:25;;;;;;;3.97;3.58;;;;;;;;;;6277571;22;20218;-86
2022/06/16 15:55:53;;;;;;;4.35;3.45;;;;;;;;;;6277448;22;20631;-87
2022/06/16 15:58:22;;;;;;;3.60;3.40;;;;;;;;;;6276663;22;20179;-87
2022/06/16 16:00:50;;;;;;;3.38;3.08;;;;;;;;;;6276634;22;20233;-87
2022/06/16 16:03:26;;;;;;;3.30;3.00;;;;;;;;;;6277722;22;20183;-87
2022/06/16 16:05:59;;;;;;;2.95;2.75;;;;;;;;;;6277202;22;20168;-86
2022/06/16 16:08:28;;;;;;;3.22;2.92;;;;;;;;;;6277034;22;20172;-87
2022/06/16 16:10:58;;;;;;;3.55;3.25;;;;;;;;;;6276870;22;20245;-87
2022/06/16 16:13:25;;;;;;;3.90;3.00;;;;;;;;;;6277308;22;20195;-87
2022/06/16 16:16:01;;;;;;;3.40;3.10;;;;;;;;;;6277106;22;20172;-86
2022/06/16 16:18:29;;;;;;;3.28;2.97;;;;;;;;;;6278018;22;20172;-88
2022/06/16 16:21:00;;;;;;;4.65;3.10;;;;;;;;;;6278587;22;20703;-88
2022/06/16 16:23:28;;;;;;;2.85;2.65;;;;;;;;;;6278625;22;20238;-87
2022/06/16 16:25:57;;;;;;;2.97;2.75;;;;;;;;;;6278060;22;20523;-86
2022/06/16 16:28:26;;;;;;;2.95;2.75;;;;;;;;;;6278596;22;20191;-87
2022/06/16 16:30:58;;;;;;;3.15;2.90;;;;;;;;;;6278108;22;20227;-86
2022/06/16 16:33:30;;;;;;;2.80;2.60;;;;;;;;;;6277753;22;20192;-86
2022/06/16 16:36:01;;;;;;;3.80;3.00;;;;;;;;;;6279147;22;20164;-85
2022/06/16 16:38:39;;;;;;;3.25;2.92;;;;;;;;;;6280024;22;20171;-86
2022/06/16 16:44:00;;;;;;;4.07;2.78;;;;;;;;;;6290113;22;20155;-85
2022/06/16 16:46:29;;;;;;;2.63;2.42;;;;;;;;;;6290470;22;20176;-85
2022/06/16 16:48:57;;;;;;;3.15;2.30;;;;;;;;;;6291001;22;20176;-87
2022/06/16 16:51:27;;;;;;;2.42;2.22;;;;;;;;;;6291271;22;20176;-86
2022/06/16 16:53:57;;;;;;;2.30;2.08;;;;;;;;;;6289843;22;20188;-84
2022/06/16 16:56:31;;;;;;;2.72;2.40;;;;;;;;;;6288703;22;20183;-84
2022/06/16 16:59:00;;;;;;;3.35;2.30;;;;;;;;;;6289971;22;20164;-85
2022/06/16 17:01:29;;;;;;;3.92;2.22;;;;;;;;;;6288983;22;20176;-86
2022/06/16 17:03:56;;;;;;;2.45;2.25;;;;;;;;;;6289919;22;20171;-85
2022/06/16 17:06:28;;;;;;;2.47;2.30;;;;;;;;;;6288981;22;20172;-85
2022/06/16 17:08:55;;;;;;;2.60;2.40;;;;;;;;;;6287771;22;20219;-85
2022/06/16 17:14:08;;;;;;;2.45;2.25;;;;;;;;;;6288524;22;20206;-86
2022/06/16 17:16:37;;;;;;;2.25;2.03;;;;;;;;;;6288540;22;20177;-89
2022/06/16 17:19:05;;;;;;;2.55;2.35;;;;;;;;;;6281479;22;20179;-86
2022/06/16 17:21:42;;;;;;;3.13;2.30;;;;;;;;;;6283201;22;20226;-86
2022/06/16 17:24:17;;;;;;;3.45;2.53;;;;;;;;;;6276281;22;20163;-87
2022/06/16 17:26:44;;;;;;;2.60;2.40;;;;;;;;;;6276580;22;20647;-86
2022/06/16 17:29:11;;;;;;;3.20;2.90;;;;;;;;;;6275695;22;20167;-86
2022/06/16 17:31:42;;;;;;;2.63;2.42;;;;;;;;;;6274886;22;20202;-87
2022/06/16 17:34:13;;;;;;;2.78;2.58;;;;;;;;;;6275998;22;20230;-87
2022/06/16 17:36:42;;;;;;;3.58;3.22;;;;;;;;;;6275732;22;20200;-87
2022/06/16 17:39:11;;;;;;;4.45;3.05;;;;;;;;;;6275602;22;20172;-86
2022/06/16 17:41:38;;;;;;;3.90;3.10;;;;;;;;;;6275320;22;20172;-87
2022/06/16 17:44:07;;;;;;;3.95;3.45;;;;;;;;;;6275667;22;20168;-87
2022/06/16 17:46:38;;;;;;;5.28;3.42;;;;;;;;;;6275518;22;20178;-86
2022/06/16 17:49:05;;;;;;;5.45;3.40;;;;;;;;;;6276241;22;20198;-86
2022/06/16 17:59:45;;;;;;;5.28;3.28;;;;;;;;;;6275969;22;20197;-86
2022/06/16 18:02:37;;;;;;;4.00;2.88;;;;;;;;;;6276600;22;20192;-87